sensor_id;sensor_type;location;lat;lon;timestamp;P1;durP1;ratioP1;P2;durP2;ratioP2
56511;SDS011;42408;53.238;5.686;2023-01-16T00:00:18;13.13;;;6.67;;
56511;SDS011;42408;53.238;5.686;2023-01-16T00:02:44;7.57;;;4.88;;
56511;SDS011;42408;53.238;5.686;2023-01-16T00:05:10;10.60;;;5.53;;
56511;SDS011;42408;53.238;5.686;2023-01-16T00:07:36;7.97;;;4.93;;
56511;SDS011;42408;53.238;5.686;2023-01-16T00:10:02;10.60;;;5.27;;
56511;SDS011;42408;53.238;5.686;2023-01-16T00:12:29;8.38;;;4.38;;
56511;SDS011;42408;53.238;5.686;2023-01-16T00:14:55;7.00;;;4.13;;
56511;SDS011;42408;53.238;5.686;2023-01-16T00:17:21;7.77;;;4.67;;
56511;SDS011;42408;53.238;5.686;2023-01-16T00:19:46;6.37;;;4.13;;
56511;SDS011;42408;53.238;5.686;2023-01-16T00:22:12;7.37;;;5.07;;
56511;SDS011;42408;53.238;5.686;2023-01-16T00:24:37;7.73;;;4.90;;
56511;SDS011;42408;53.238;5.686;2023-01-16T00:27:03;8.70;;;6.07;;
56511;SDS011;42408;53.238;5.686;2023-01-16T00:29:29;7.90;;;6.30;;
56511;SDS011;42408;53.238;5.686;2023-01-16T00:31:54;11.50;;;6.33;;
56511;SDS011;42408;53.238;5.686;2023-01-16T00:34:20;10.13;;;7.07;;
56511;SDS011;42408;53.238;5.686;2023-01-16T00:36:45;11.43;;;7.47;;
56511;SDS011;42408;53.238;5.686;2023-01-16T00:39:11;10.17;;;6.90;;
56511;SDS011;42408;53.238;5.686;2023-01-16T00:41:37;15.23;;;8.00;;
56511;SDS011;42408;53.238;5.686;2023-01-16T00:44:02;10.57;;;7.63;;
56511;SDS011;42408;53.238;5.686;2023-01-16T00:46:28;14.57;;;8.17;;
56511;SDS011;42408;53.238;5.686;2023-01-16T00:48:54;11.43;;;7.93;;
56511;SDS011;42408;53.238;5.686;2023-01-16T00:51:20;11.93;;;8.13;;
56511;SDS011;42408;53.238;5.686;2023-01-16T00:53:46;12.73;;;7.50;;
56511;SDS011;42408;53.238;5.686;2023-01-16T00:56:11;9.93;;;7.87;;
56511;SDS011;42408;53.238;5.686;2023-01-16T00:58:37;10.30;;;7.37;;
56511;SDS011;42408;53.238;5.686;2023-01-16T01:01:03;10.10;;;7.47;;
56511;SDS011;42408;53.238;5.686;2023-01-16T01:03:28;13.23;;;8.17;;
56511;SDS011;42408;53.238;5.686;2023-01-16T01:05:54;12.63;;;8.83;;
56511;SDS011;42408;53.238;5.686;2023-01-16T01:08:20;10.83;;;6.93;;
56511;SDS011;42408;53.238;5.686;2023-01-16T01:10:45;10.40;;;7.50;;
56511;SDS011;42408;53.238;5.686;2023-01-16T01:13:11;12.13;;;7.77;;
56511;SDS011;42408;53.238;5.686;2023-01-16T01:15:37;13.30;;;8.13;;
56511;SDS011;42408;53.238;5.686;2023-01-16T01:18:03;10.03;;;7.60;;
56511;SDS011;42408;53.238;5.686;2023-01-16T01:20:29;11.73;;;7.43;;
56511;SDS011;42408;53.238;5.686;2023-01-16T01:22:55;11.50;;;7.50;;
56511;SDS011;42408;53.238;5.686;2023-01-16T01:25:21;13.17;;;7.83;;
56511;SDS011;42408;53.238;5.686;2023-01-16T01:27:47;12.37;;;7.67;;
56511;SDS011;42408;53.238;5.686;2023-01-16T01:30:13;11.87;;;7.77;;
56511;SDS011;42408;53.238;5.686;2023-01-16T01:32:38;12.37;;;7.67;;
56511;SDS011;42408;53.238;5.686;2023-01-16T01:35:05;11.23;;;7.03;;
56511;SDS011;42408;53.238;5.686;2023-01-16T01:37:32;9.50;;;7.15;;
56511;SDS011;42408;53.238;5.686;2023-01-16T01:39:58;11.70;;;7.60;;
56511;SDS011;42408;53.238;5.686;2023-01-16T01:42:23;10.83;;;8.13;;
56511;SDS011;42408;53.238;5.686;2023-01-16T01:48:30;12.32;;;7.47;;
56511;SDS011;42408;53.238;5.686;2023-01-16T01:53:16;13.90;;;8.65;;
56511;SDS011;42408;53.238;5.686;2023-01-16T01:55:47;14.63;;;10.05;;
56511;SDS011;42408;53.238;5.686;2023-01-16T01:58:15;13.10;;;9.23;;
56511;SDS011;42408;53.238;5.686;2023-01-16T02:00:47;16.23;;;9.77;;
56511;SDS011;42408;53.238;5.686;2023-01-16T02:03:17;15.45;;;9.57;;
56511;SDS011;42408;53.238;5.686;2023-01-16T02:05:51;16.83;;;9.82;;
56511;SDS011;42408;53.238;5.686;2023-01-16T02:08:20;15.57;;;9.77;;
56511;SDS011;42408;53.238;5.686;2023-01-16T02:10:51;15.60;;;10.98;;
56511;SDS011;42408;53.238;5.686;2023-01-16T02:13:21;15.48;;;9.88;;
56511;SDS011;42408;53.238;5.686;2023-01-16T02:15:47;17.53;;;9.83;;
56511;SDS011;42408;53.238;5.686;2023-01-16T02:18:31;16.13;;;10.63;;
56511;SDS011;42408;53.238;5.686;2023-01-16T02:29:47;17.27;;;9.90;;
56511;SDS011;42408;53.238;5.686;2023-01-16T02:38:17;14.32;;;9.13;;
56511;SDS011;42408;53.238;5.686;2023-01-16T02:43:55;11.38;;;8.10;;
56511;SDS011;42408;53.238;5.686;2023-01-16T02:46:35;16.20;;;8.85;;
56511;SDS011;42408;53.238;5.686;2023-01-16T02:49:31;13.10;;;8.25;;
56511;SDS011;42408;53.238;5.686;2023-01-16T02:52:20;12.98;;;7.88;;
56511;SDS011;42408;53.238;5.686;2023-01-16T02:55:00;13.88;;;7.78;;
56511;SDS011;42408;53.238;5.686;2023-01-16T02:57:43;13.30;;;7.45;;
56511;SDS011;42408;53.238;5.686;2023-01-16T03:00:14;11.60;;;7.85;;
56511;SDS011;42408;53.238;5.686;2023-01-16T03:02:42;13.48;;;7.75;;
56511;SDS011;42408;53.238;5.686;2023-01-16T03:12:30;11.77;;;7.37;;
56511;SDS011;42408;53.238;5.686;2023-01-16T03:15:13;13.20;;;8.40;;
56511;SDS011;42408;53.238;5.686;2023-01-16T03:25:55;13.53;;;8.60;;
56511;SDS011;42408;53.238;5.686;2023-01-16T03:28:31;12.88;;;8.07;;
56511;SDS011;42408;53.238;5.686;2023-01-16T03:36:49;11.75;;;8.70;;
56511;SDS011;42408;53.238;5.686;2023-01-16T03:39:16;12.35;;;8.02;;
56511;SDS011;42408;53.238;5.686;2023-01-16T03:41:45;12.55;;;8.40;;
56511;SDS011;42408;53.238;5.686;2023-01-16T03:44:20;11.70;;;7.82;;
56511;SDS011;42408;53.238;5.686;2023-01-16T03:46:54;13.00;;;8.13;;
56511;SDS011;42408;53.238;5.686;2023-01-16T03:49:24;12.98;;;8.15;;
56511;SDS011;42408;53.238;5.686;2023-01-16T03:52:04;11.65;;;8.07;;
56511;SDS011;42408;53.238;5.686;2023-01-16T03:57:35;12.25;;;7.85;;
56511;SDS011;42408;53.238;5.686;2023-01-16T04:00:04;16.63;;;8.73;;
56511;SDS011;42408;53.238;5.686;2023-01-16T04:02:37;13.60;;;8.45;;
56511;SDS011;42408;53.238;5.686;2023-01-16T04:05:15;14.18;;;8.77;;
56511;SDS011;42408;53.238;5.686;2023-01-16T04:07:43;11.25;;;8.93;;
56511;SDS011;42408;53.238;5.686;2023-01-16T04:10:24;12.93;;;8.13;;
56511;SDS011;42408;53.238;5.686;2023-01-16T04:12:56;14.00;;;8.88;;
56511;SDS011;42408;53.238;5.686;2023-01-16T04:15:25;13.68;;;9.27;;
56511;SDS011;42408;53.238;5.686;2023-01-16T04:17:54;13.90;;;9.38;;
56511;SDS011;42408;53.238;5.686;2023-01-16T04:20:20;14.15;;;10.32;;
56511;SDS011;42408;53.238;5.686;2023-01-16T04:22:48;15.18;;;9.93;;
56511;SDS011;42408;53.238;5.686;2023-01-16T04:25:15;17.02;;;11.30;;
56511;SDS011;42408;53.238;5.686;2023-01-16T04:27:43;17.30;;;11.10;;
56511;SDS011;42408;53.238;5.686;2023-01-16T04:30:09;18.30;;;11.70;;
56511;SDS011;42408;53.238;5.686;2023-01-16T04:32:35;15.98;;;11.48;;
56511;SDS011;42408;53.238;5.686;2023-01-16T04:35:01;18.87;;;11.87;;
56511;SDS011;42408;53.238;5.686;2023-01-16T04:37:27;18.10;;;12.15;;
56511;SDS011;42408;53.238;5.686;2023-01-16T04:39:53;17.93;;;10.93;;
56511;SDS011;42408;53.238;5.686;2023-01-16T04:42:18;20.03;;;13.00;;
56511;SDS011;42408;53.238;5.686;2023-01-16T04:44:44;18.10;;;11.80;;
56511;SDS011;42408;53.238;5.686;2023-01-16T04:47:10;16.57;;;11.77;;
56511;SDS011;42408;53.238;5.686;2023-01-16T04:49:36;25.20;;;13.10;;
56511;SDS011;42408;53.238;5.686;2023-01-16T04:52:02;21.77;;;13.07;;
56511;SDS011;42408;53.238;5.686;2023-01-16T04:54:27;19.73;;;12.03;;
56511;SDS011;42408;53.238;5.686;2023-01-16T04:56:53;18.87;;;11.93;;
56511;SDS011;42408;53.238;5.686;2023-01-16T04:59:19;20.90;;;13.93;;
56511;SDS011;42408;53.238;5.686;2023-01-16T05:01:44;21.93;;;13.70;;
56511;SDS011;42408;53.238;5.686;2023-01-16T05:04:12;21.70;;;13.83;;
56511;SDS011;42408;53.238;5.686;2023-01-16T05:06:39;22.40;;;13.85;;
56511;SDS011;42408;53.238;5.686;2023-01-16T05:09:05;23.27;;;12.93;;
56511;SDS011;42408;53.238;5.686;2023-01-16T05:11:32;19.75;;;13.05;;
56511;SDS011;42408;53.238;5.686;2023-01-16T05:13:58;21.33;;;13.27;;
56511;SDS011;42408;53.238;5.686;2023-01-16T05:16:24;22.13;;;13.20;;
56511;SDS011;42408;53.238;5.686;2023-01-16T05:18:50;22.10;;;12.93;;
56511;SDS011;42408;53.238;5.686;2023-01-16T05:21:16;20.97;;;13.53;;
56511;SDS011;42408;53.238;5.686;2023-01-16T05:23:41;23.03;;;13.47;;
56511;SDS011;42408;53.238;5.686;2023-01-16T05:26:07;24.53;;;14.00;;
56511;SDS011;42408;53.238;5.686;2023-01-16T05:28:33;25.27;;;13.70;;
56511;SDS011;42408;53.238;5.686;2023-01-16T05:31:00;20.73;;;14.07;;
56511;SDS011;42408;53.238;5.686;2023-01-16T05:33:25;22.13;;;13.83;;
56511;SDS011;42408;53.238;5.686;2023-01-16T05:35:52;21.27;;;14.73;;
56511;SDS011;42408;53.238;5.686;2023-01-16T05:38:19;20.92;;;13.30;;
56511;SDS011;42408;53.238;5.686;2023-01-16T05:40:45;20.15;;;13.32;;
56511;SDS011;42408;53.238;5.686;2023-01-16T05:43:11;21.05;;;14.23;;
56511;SDS011;42408;53.238;5.686;2023-01-16T05:45:37;24.43;;;14.00;;
56511;SDS011;42408;53.238;5.686;2023-01-16T05:48:03;23.77;;;14.37;;
56511;SDS011;42408;53.238;5.686;2023-01-16T05:50:28;20.90;;;14.83;;
56511;SDS011;42408;53.238;5.686;2023-01-16T05:52:54;23.43;;;14.40;;
56511;SDS011;42408;53.238;5.686;2023-01-16T05:55:20;20.70;;;13.40;;
56511;SDS011;42408;53.238;5.686;2023-01-16T05:57:46;25.30;;;15.17;;
56511;SDS011;42408;53.238;5.686;2023-01-16T06:00:11;25.07;;;15.33;;
56511;SDS011;42408;53.238;5.686;2023-01-16T06:02:38;21.25;;;13.18;;
56511;SDS011;42408;53.238;5.686;2023-01-16T06:05:03;24.03;;;15.33;;
56511;SDS011;42408;53.238;5.686;2023-01-16T06:07:30;23.23;;;14.43;;
56511;SDS011;42408;53.238;5.686;2023-01-16T06:09:55;23.40;;;15.70;;
56511;SDS011;42408;53.238;5.686;2023-01-16T06:12:21;27.47;;;16.20;;
56511;SDS011;42408;53.238;5.686;2023-01-16T06:14:47;26.27;;;15.87;;
56511;SDS011;42408;53.238;5.686;2023-01-16T06:17:12;24.77;;;15.67;;
56511;SDS011;42408;53.238;5.686;2023-01-16T06:19:39;27.30;;;16.10;;
56511;SDS011;42408;53.238;5.686;2023-01-16T06:22:05;27.27;;;17.15;;
56511;SDS011;42408;53.238;5.686;2023-01-16T06:24:31;21.60;;;15.87;;
56511;SDS011;42408;53.238;5.686;2023-01-16T06:26:57;25.10;;;16.70;;
56511;SDS011;42408;53.238;5.686;2023-01-16T06:29:23;24.23;;;16.40;;
56511;SDS011;42408;53.238;5.686;2023-01-16T06:31:48;23.63;;;15.70;;
56511;SDS011;42408;53.238;5.686;2023-01-16T06:34:14;25.23;;;15.27;;
56511;SDS011;42408;53.238;5.686;2023-01-16T06:36:40;25.10;;;15.30;;
56511;SDS011;42408;53.238;5.686;2023-01-16T06:39:06;23.25;;;14.40;;
56511;SDS011;42408;53.238;5.686;2023-01-16T06:41:33;25.27;;;14.38;;
56511;SDS011;42408;53.238;5.686;2023-01-16T06:43:58;23.90;;;14.87;;
56511;SDS011;42408;53.238;5.686;2023-01-16T06:46:24;22.95;;;14.45;;
56511;SDS011;42408;53.238;5.686;2023-01-16T06:48:50;23.97;;;14.63;;
56511;SDS011;42408;53.238;5.686;2023-01-16T06:51:15;25.10;;;14.93;;
56511;SDS011;42408;53.238;5.686;2023-01-16T06:53:41;24.47;;;14.67;;
56511;SDS011;42408;53.238;5.686;2023-01-16T06:56:07;21.87;;;13.20;;
56511;SDS011;42408;53.238;5.686;2023-01-16T06:58:32;19.77;;;13.63;;
56511;SDS011;42408;53.238;5.686;2023-01-16T07:00:58;25.93;;;14.37;;
56511;SDS011;42408;53.238;5.686;2023-01-16T07:03:23;20.80;;;13.50;;
56511;SDS011;42408;53.238;5.686;2023-01-16T07:05:49;21.53;;;13.50;;
56511;SDS011;42408;53.238;5.686;2023-01-16T07:08:15;26.20;;;14.23;;
56511;SDS011;42408;53.238;5.686;2023-01-16T07:10:41;21.20;;;13.10;;
56511;SDS011;42408;53.238;5.686;2023-01-16T07:13:07;22.80;;;12.60;;
56511;SDS011;42408;53.238;5.686;2023-01-16T07:15:34;23.73;;;14.07;;
56511;SDS011;42408;53.238;5.686;2023-01-16T07:18:19;20.60;;;13.02;;
56511;SDS011;42408;53.238;5.686;2023-01-16T07:21:05;25.33;;;14.65;;
56511;SDS011;42408;53.238;5.686;2023-01-16T07:23:54;22.90;;;13.43;;
56511;SDS011;42408;53.238;5.686;2023-01-16T07:26:25;26.92;;;18.42;;
56511;SDS011;42408;53.238;5.686;2023-01-16T07:28:51;21.80;;;13.18;;
56511;SDS011;42408;53.238;5.686;2023-01-16T07:31:19;22.40;;;14.13;;
56511;SDS011;42408;53.238;5.686;2023-01-16T07:33:45;20.23;;;12.45;;
56511;SDS011;42408;53.238;5.686;2023-01-16T07:36:11;18.97;;;11.83;;
56511;SDS011;42408;53.238;5.686;2023-01-16T07:38:37;20.00;;;13.70;;
56511;SDS011;42408;53.238;5.686;2023-01-16T07:41:02;19.23;;;12.00;;
56511;SDS011;42408;53.238;5.686;2023-01-16T07:43:29;26.03;;;13.77;;
56511;SDS011;42408;53.238;5.686;2023-01-16T07:45:54;26.38;;;13.98;;
56511;SDS011;42408;53.238;5.686;2023-01-16T07:48:23;22.93;;;11.80;;
56511;SDS011;42408;53.238;5.686;2023-01-16T07:50:52;17.92;;;12.68;;
56511;SDS011;42408;53.238;5.686;2023-01-16T07:53:21;20.75;;;12.27;;
56511;SDS011;42408;53.238;5.686;2023-01-16T07:55:49;25.20;;;12.65;;
56511;SDS011;42408;53.238;5.686;2023-01-16T07:58:16;22.13;;;12.15;;
56511;SDS011;42408;53.238;5.686;2023-01-16T08:00:42;20.50;;;11.45;;
56511;SDS011;42408;53.238;5.686;2023-01-16T08:03:08;21.85;;;13.20;;
56511;SDS011;42408;53.238;5.686;2023-01-16T08:05:34;25.10;;;13.97;;
56511;SDS011;42408;53.238;5.686;2023-01-16T08:08:00;21.87;;;11.03;;
56511;SDS011;42408;53.238;5.686;2023-01-16T08:10:25;17.33;;;11.13;;
56511;SDS011;42408;53.238;5.686;2023-01-16T08:12:51;16.97;;;10.23;;
56511;SDS011;42408;53.238;5.686;2023-01-16T08:15:16;18.03;;;10.60;;
56511;SDS011;42408;53.238;5.686;2023-01-16T08:17:42;18.57;;;9.73;;
56511;SDS011;42408;53.238;5.686;2023-01-16T08:20:09;13.98;;;7.82;;
56511;SDS011;42408;53.238;5.686;2023-01-16T08:22:35;20.90;;;12.48;;
56511;SDS011;42408;53.238;5.686;2023-01-16T08:25:07;16.77;;;8.98;;
56511;SDS011;42408;53.238;5.686;2023-01-16T08:27:33;13.47;;;7.87;;
56511;SDS011;42408;53.238;5.686;2023-01-16T08:29:59;18.52;;;10.35;;
56511;SDS011;42408;53.238;5.686;2023-01-16T08:32:24;20.67;;;9.40;;
56511;SDS011;42408;53.238;5.686;2023-01-16T08:34:50;14.90;;;8.20;;
56511;SDS011;42408;53.238;5.686;2023-01-16T08:37:15;12.00;;;6.30;;
56511;SDS011;42408;53.238;5.686;2023-01-16T08:39:41;17.23;;;7.73;;
56511;SDS011;42408;53.238;5.686;2023-01-16T08:42:07;13.77;;;7.43;;
56511;SDS011;42408;53.238;5.686;2023-01-16T08:44:51;14.18;;;6.40;;
56511;SDS011;42408;53.238;5.686;2023-01-16T08:47:35;10.88;;;6.60;;
56511;SDS011;42408;53.238;5.686;2023-01-16T08:50:21;14.10;;;8.93;;
56511;SDS011;42408;53.238;5.686;2023-01-16T08:53:05;20.45;;;10.27;;
56511;SDS011;42408;53.238;5.686;2023-01-16T08:55:31;19.00;;;10.47;;
56511;SDS011;42408;53.238;5.686;2023-01-16T08:57:57;17.53;;;8.80;;
56511;SDS011;42408;53.238;5.686;2023-01-16T09:00:24;15.27;;;8.25;;
56511;SDS011;42408;53.238;5.686;2023-01-16T09:02:51;16.77;;;7.70;;
56511;SDS011;42408;53.238;5.686;2023-01-16T09:05:17;15.48;;;6.55;;
56511;SDS011;42408;53.238;5.686;2023-01-16T09:07:43;16.33;;;6.73;;
56511;SDS011;42408;53.238;5.686;2023-01-16T09:10:09;15.97;;;6.67;;
56511;SDS011;42408;53.238;5.686;2023-01-16T09:12:35;12.60;;;6.78;;
56511;SDS011;42408;53.238;5.686;2023-01-16T09:15:19;12.70;;;7.63;;
56511;SDS011;42408;53.238;5.686;2023-01-16T09:17:45;12.80;;;7.77;;
56511;SDS011;42408;53.238;5.686;2023-01-16T09:20:10;15.90;;;9.07;;
56511;SDS011;42408;53.238;5.686;2023-01-16T09:22:36;14.30;;;6.90;;
56511;SDS011;42408;53.238;5.686;2023-01-16T09:25:02;10.60;;;5.50;;
56511;SDS011;42408;53.238;5.686;2023-01-16T09:27:27;11.13;;;6.00;;
56511;SDS011;42408;53.238;5.686;2023-01-16T09:29:53;11.40;;;6.00;;
56511;SDS011;42408;53.238;5.686;2023-01-16T09:32:19;9.93;;;5.37;;
56511;SDS011;42408;53.238;5.686;2023-01-16T09:34:45;11.85;;;5.18;;
56511;SDS011;42408;53.238;5.686;2023-01-16T09:37:11;9.53;;;5.13;;
56511;SDS011;42408;53.238;5.686;2023-01-16T09:39:37;11.20;;;6.17;;
56511;SDS011;42408;53.238;5.686;2023-01-16T09:45:26;10.60;;;6.05;;
56511;SDS011;42408;53.238;5.686;2023-01-16T09:47:55;9.70;;;6.70;;
56511;SDS011;42408;53.238;5.686;2023-01-16T09:50:32;12.25;;;7.07;;
56511;SDS011;42408;53.238;5.686;2023-01-16T09:53:00;12.38;;;6.53;;
56511;SDS011;42408;53.238;5.686;2023-01-16T09:55:49;10.88;;;5.93;;
56511;SDS011;42408;53.238;5.686;2023-01-16T09:58:39;11.13;;;7.22;;
56511;SDS011;42408;53.238;5.686;2023-01-16T10:01:21;10.68;;;5.88;;
56511;SDS011;42408;53.238;5.686;2023-01-16T10:03:54;10.13;;;5.88;;
56511;SDS011;42408;53.238;5.686;2023-01-16T10:06:34;11.02;;;7.22;;
56511;SDS011;42408;53.238;5.686;2023-01-16T10:09:10;11.52;;;6.05;;
56511;SDS011;42408;53.238;5.686;2023-01-16T10:14:39;12.00;;;6.57;;
56511;SDS011;42408;53.238;5.686;2023-01-16T10:25:32;13.23;;;7.30;;
56511;SDS011;42408;53.238;5.686;2023-01-16T10:30:51;11.88;;;6.30;;
56511;SDS011;42408;53.238;5.686;2023-01-16T10:36:24;10.30;;;6.50;;
56511;SDS011;42408;53.238;5.686;2023-01-16T10:38:54;11.60;;;6.97;;
56511;SDS011;42408;53.238;5.686;2023-01-16T10:41:35;10.80;;;5.80;;
56511;SDS011;42408;53.238;5.686;2023-01-16T10:47:19;7.35;;;4.82;;
56511;SDS011;42408;53.238;5.686;2023-01-16T10:50:21;17.20;;;12.80;;
56511;SDS011;42408;53.238;5.686;2023-01-16T10:52:49;11.32;;;5.70;;
56511;SDS011;42408;53.238;5.686;2023-01-16T10:55:15;7.97;;;5.47;;
56511;SDS011;42408;53.238;5.686;2023-01-16T10:58:05;27.98;;;24.42;;
56511;SDS011;42408;53.238;5.686;2023-01-16T11:00:39;9.00;;;6.55;;
56511;SDS011;42408;53.238;5.686;2023-01-16T11:03:08;7.82;;;4.43;;
56511;SDS011;42408;53.238;5.686;2023-01-16T11:09:04;6.20;;;3.97;;
56511;SDS011;42408;53.238;5.686;2023-01-16T11:11:39;6.50;;;3.90;;
56511;SDS011;42408;53.238;5.686;2023-01-16T11:14:25;6.32;;;3.38;;
56511;SDS011;42408;53.238;5.686;2023-01-16T11:20:07;5.82;;;4.30;;
56511;SDS011;42408;53.238;5.686;2023-01-16T11:22:42;7.18;;;3.47;;
56511;SDS011;42408;53.238;5.686;2023-01-16T11:25:13;4.45;;;3.28;;
56511;SDS011;42408;53.238;5.686;2023-01-16T11:27:45;3.88;;;2.53;;
56511;SDS011;42408;53.238;5.686;2023-01-16T11:30:18;5.30;;;2.60;;
56511;SDS011;42408;53.238;5.686;2023-01-16T11:32:47;4.35;;;2.40;;
56511;SDS011;42408;53.238;5.686;2023-01-16T11:35:15;6.03;;;4.50;;
56511;SDS011;42408;53.238;5.686;2023-01-16T11:37:42;6.55;;;5.90;;
56511;SDS011;42408;53.238;5.686;2023-01-16T11:40:17;7.63;;;6.93;;
56511;SDS011;42408;53.238;5.686;2023-01-16T11:42:55;6.63;;;5.95;;
56511;SDS011;42408;53.238;5.686;2023-01-16T11:45:45;4.68;;;2.45;;
56511;SDS011;42408;53.238;5.686;2023-01-16T11:48:37;3.97;;;2.60;;
56511;SDS011;42408;53.238;5.686;2023-01-16T11:51:05;4.97;;;3.75;;
56511;SDS011;42408;53.238;5.686;2023-01-16T11:53:35;4.20;;;2.15;;
56511;SDS011;42408;53.238;5.686;2023-01-16T12:02:40;5.20;;;2.30;;
56511;SDS011;42408;53.238;5.686;2023-01-16T12:04:55;3.95;;;2.80;;
56511;SDS011;42408;53.238;5.686;2023-01-16T12:13:39;3.83;;;2.25;;
56511;SDS011;42408;53.238;5.686;2023-01-16T12:20:08;3.65;;;2.67;;
56511;SDS011;42408;53.238;5.686;2023-01-16T12:24:53;2.73;;;1.97;;
56511;SDS011;42408;53.238;5.686;2023-01-16T12:33:30;3.30;;;2.30;;
56511;SDS011;42408;53.238;5.686;2023-01-16T12:36:06;6.38;;;3.72;;
56511;SDS011;42408;53.238;5.686;2023-01-16T12:50:00;3.40;;;2.15;;
56511;SDS011;42408;53.238;5.686;2023-01-16T12:52:39;4.10;;;2.38;;
56511;SDS011;42408;53.238;5.686;2023-01-16T12:55:23;4.28;;;2.63;;
56511;SDS011;42408;53.238;5.686;2023-01-16T12:58:03;3.80;;;2.50;;
56511;SDS011;42408;53.238;5.686;2023-01-16T13:00:42;6.50;;;5.00;;
56511;SDS011;42408;53.238;5.686;2023-01-16T13:05:45;7.63;;;4.15;;
56511;SDS011;42408;53.238;5.686;2023-01-16T13:10:45;4.68;;;3.28;;
56511;SDS011;42408;53.238;5.686;2023-01-16T13:13:35;10.32;;;7.47;;
56511;SDS011;42408;53.238;5.686;2023-01-16T13:16:09;8.85;;;4.68;;
56511;SDS011;42408;53.238;5.686;2023-01-16T13:18:37;8.20;;;5.05;;
56511;SDS011;42408;53.238;5.686;2023-01-16T13:21:08;5.00;;;3.75;;
56511;SDS011;42408;53.238;5.686;2023-01-16T13:23:42;23.60;;;15.38;;
56511;SDS011;42408;53.238;5.686;2023-01-16T13:26:13;19.02;;;12.20;;
56511;SDS011;42408;53.238;5.686;2023-01-16T13:28:59;17.90;;;11.70;;
56511;SDS011;42408;53.238;5.686;2023-01-16T13:34:38;6.88;;;4.28;;
56511;SDS011;42408;53.238;5.686;2023-01-16T13:42:47;31.50;;;18.23;;
56511;SDS011;42408;53.238;5.686;2023-01-16T13:45:31;14.45;;;10.07;;
56511;SDS011;42408;53.238;5.686;2023-01-16T13:48:13;35.22;;;22.45;;
56511;SDS011;42408;53.238;5.686;2023-01-16T13:53:40;18.70;;;11.23;;
56511;SDS011;42408;53.238;5.686;2023-01-16T13:56:12;8.68;;;5.63;;
56511;SDS011;42408;53.238;5.686;2023-01-16T13:58:40;10.65;;;6.22;;
56511;SDS011;42408;53.238;5.686;2023-01-16T14:06:44;7.28;;;5.35;;
56511;SDS011;42408;53.238;5.686;2023-01-16T14:09:22;7.15;;;5.45;;
56511;SDS011;42408;53.238;5.686;2023-01-16T14:14:27;12.88;;;9.52;;
56511;SDS011;42408;53.238;5.686;2023-01-16T14:17:17;8.77;;;5.70;;
56511;SDS011;42408;53.238;5.686;2023-01-16T14:20:00;5.10;;;3.90;;
56511;SDS011;42408;53.238;5.686;2023-01-16T14:22:34;4.13;;;2.95;;
56511;SDS011;42408;53.238;5.686;2023-01-16T14:25:04;5.03;;;2.80;;
56511;SDS011;42408;53.238;5.686;2023-01-16T14:27:37;4.53;;;3.00;;
56511;SDS011;42408;53.238;5.686;2023-01-16T14:30:05;4.53;;;3.03;;
56511;SDS011;42408;53.238;5.686;2023-01-16T14:32:47;3.47;;;2.20;;
56511;SDS011;42408;53.238;5.686;2023-01-16T14:35:17;4.07;;;2.33;;
56511;SDS011;42408;53.238;5.686;2023-01-16T14:37:54;3.83;;;2.45;;
56511;SDS011;42408;53.238;5.686;2023-01-16T14:40:23;4.50;;;3.15;;
56511;SDS011;42408;53.238;5.686;2023-01-16T14:43:11;5.60;;;3.15;;
56511;SDS011;42408;53.238;5.686;2023-01-16T14:49:36;6.20;;;3.90;;
56511;SDS011;42408;53.238;5.686;2023-01-16T14:55:26;27.35;;;19.27;;
56511;SDS011;42408;53.238;5.686;2023-01-16T14:58:27;29.95;;;27.13;;
56511;SDS011;42408;53.238;5.686;2023-01-16T15:01:19;20.92;;;18.90;;
56511;SDS011;42408;53.238;5.686;2023-01-16T15:04:08;12.48;;;10.35;;
56511;SDS011;42408;53.238;5.686;2023-01-16T15:06:40;12.18;;;10.75;;
56511;SDS011;42408;53.238;5.686;2023-01-16T15:09:11;34.80;;;29.48;;
56511;SDS011;42408;53.238;5.686;2023-01-16T15:11:44;7.80;;;5.55;;
56511;SDS011;42408;53.238;5.686;2023-01-16T15:14:17;10.75;;;7.50;;
56511;SDS011;42408;53.238;5.686;2023-01-16T15:16:52;8.68;;;6.75;;
56511;SDS011;42408;53.238;5.686;2023-01-16T15:19:57;7.63;;;6.20;;
56511;SDS011;42408;53.238;5.686;2023-01-16T15:23:02;9.07;;;7.53;;
56511;SDS011;42408;53.238;5.686;2023-01-16T15:25:35;9.23;;;6.75;;
56511;SDS011;42408;53.238;5.686;2023-01-16T15:31:32;10.30;;;7.30;;
56511;SDS011;42408;53.238;5.686;2023-01-16T15:34:05;9.50;;;7.03;;
56511;SDS011;42408;53.238;5.686;2023-01-16T15:39:02;6.75;;;4.90;;
56511;SDS011;42408;53.238;5.686;2023-01-16T15:45:22;6.68;;;4.57;;
56511;SDS011;42408;53.238;5.686;2023-01-16T15:51:01;6.32;;;4.47;;
56511;SDS011;42408;53.238;5.686;2023-01-16T15:53:35;14.15;;;9.00;;
56511;SDS011;42408;53.238;5.686;2023-01-16T15:56:07;9.95;;;6.55;;
56511;SDS011;42408;53.238;5.686;2023-01-16T15:59:00;11.68;;;6.40;;
56511;SDS011;42408;53.238;5.686;2023-01-16T16:01:26;7.23;;;4.77;;
56511;SDS011;42408;53.238;5.686;2023-01-16T16:03:54;6.32;;;4.53;;
56511;SDS011;42408;53.238;5.686;2023-01-16T16:06:22;7.45;;;4.55;;
56511;SDS011;42408;53.238;5.686;2023-01-16T16:08:50;7.00;;;4.40;;
56511;SDS011;42408;53.238;5.686;2023-01-16T16:11:19;6.78;;;4.00;;
56511;SDS011;42408;53.238;5.686;2023-01-16T16:14:03;6.68;;;4.50;;
56511;SDS011;42408;53.238;5.686;2023-01-16T16:17:27;6.00;;;4.20;;
56511;SDS011;42408;53.238;5.686;2023-01-16T16:22:49;8.88;;;4.95;;
56511;SDS011;42408;53.238;5.686;2023-01-16T16:25:21;7.85;;;4.75;;
56511;SDS011;42408;53.238;5.686;2023-01-16T16:27:53;6.93;;;4.60;;
56511;SDS011;42408;53.238;5.686;2023-01-16T16:30:23;7.18;;;4.75;;
56511;SDS011;42408;53.238;5.686;2023-01-16T16:32:51;7.57;;;4.70;;
56511;SDS011;42408;53.238;5.686;2023-01-16T16:35:20;9.35;;;4.95;;
56511;SDS011;42408;53.238;5.686;2023-01-16T16:37:55;7.00;;;4.85;;
56511;SDS011;42408;53.238;5.686;2023-01-16T16:40:21;8.87;;;6.03;;
56511;SDS011;42408;53.238;5.686;2023-01-16T16:42:48;9.00;;;5.33;;
56511;SDS011;42408;53.238;5.686;2023-01-16T16:47:43;8.27;;;5.33;;
56511;SDS011;42408;53.238;5.686;2023-01-16T16:55:46;6.53;;;4.63;;
56511;SDS011;42408;53.238;5.686;2023-01-16T16:58:14;6.47;;;4.57;;
56511;SDS011;42408;53.238;5.686;2023-01-16T17:00:57;7.05;;;5.00;;
56511;SDS011;42408;53.238;5.686;2023-01-16T17:03:23;7.17;;;4.63;;
56511;SDS011;42408;53.238;5.686;2023-01-16T17:05:51;6.78;;;4.30;;
56511;SDS011;42408;53.238;5.686;2023-01-16T17:08:25;7.55;;;4.88;;
56511;SDS011;42408;53.238;5.686;2023-01-16T17:10:55;6.45;;;4.13;;
56511;SDS011;42408;53.238;5.686;2023-01-16T17:13:22;7.93;;;4.53;;
56511;SDS011;42408;53.238;5.686;2023-01-16T17:15:58;8.60;;;4.28;;
56511;SDS011;42408;53.238;5.686;2023-01-16T17:18:24;6.30;;;4.32;;
56511;SDS011;42408;53.238;5.686;2023-01-16T17:23:17;6.88;;;4.85;;
56511;SDS011;42408;53.238;5.686;2023-01-16T17:25:44;7.60;;;5.00;;
56511;SDS011;42408;53.238;5.686;2023-01-16T17:28:10;7.27;;;4.60;;
56511;SDS011;42408;53.238;5.686;2023-01-16T17:30:36;6.88;;;4.55;;
56511;SDS011;42408;53.238;5.686;2023-01-16T17:33:09;6.75;;;4.60;;
56511;SDS011;42408;53.238;5.686;2023-01-16T17:35:39;7.65;;;4.90;;
56511;SDS011;42408;53.238;5.686;2023-01-16T17:38:13;7.63;;;4.57;;
56511;SDS011;42408;53.238;5.686;2023-01-16T17:40:40;7.43;;;4.50;;
56511;SDS011;42408;53.238;5.686;2023-01-16T17:43:10;6.07;;;3.97;;
56511;SDS011;42408;53.238;5.686;2023-01-16T17:45:58;4.20;;;2.35;;